sensor_id;sensor_type;location;lat;lon;timestamp;pressure;altitude;pressure_sealevel;temperature;humidity
50394;BME280;36308;46.312;25.288;2022-12-18T00:01:23;96864.56;;;3.80;73.00
50394;BME280;36308;46.312;25.288;2022-12-18T00:03:49;96875.19;;;3.80;73.46
50394;BME280;36308;46.312;25.288;2022-12-18T00:06:18;96884.19;;;3.79;72.84
50394;BME280;36308;46.312;25.288;2022-12-18T00:08:44;96879.25;;;3.76;72.92
50394;BME280;36308;46.312;25.288;2022-12-18T00:11:16;96882.91;;;3.75;72.70
50394;BME280;36308;46.312;25.288;2022-12-18T00:13:42;96883.31;;;3.72;72.34
50394;BME280;36308;46.312;25.288;2022-12-18T00:16:09;96891.66;;;3.69;72.12
50394;BME280;36308;46.312;25.288;2022-12-18T00:18:34;96892.88;;;3.66;72.05
50394;BME280;36308;46.312;25.288;2022-12-18T00:21:00;96891.44;;;3.63;71.99
50394;BME280;36308;46.312;25.288;2022-12-18T00:23:26;96898.78;;;3.61;72.07
50394;BME280;36308;46.312;25.288;2022-12-18T00:25:52;96899.16;;;3.58;72.12
50394;BME280;36308;46.312;25.288;2022-12-18T00:31:21;96901.59;;;3.53;72.33
50394;BME280;36308;46.312;25.288;2022-12-18T00:33:47;96906.28;;;3.51;72.54
50394;BME280;36308;46.312;25.288;2022-12-18T00:36:16;96911.59;;;3.51;72.12
50394;BME280;36308;46.312;25.288;2022-12-18T00:38:42;96914.44;;;3.50;72.21
50394;BME280;36308;46.312;25.288;2022-12-18T00:41:09;96918.31;;;3.47;72.69
50394;BME280;36308;46.312;25.288;2022-12-18T00:43:35;96923.63;;;3.47;72.15
50394;BME280;36308;46.312;25.288;2022-12-18T00:46:01;96937.91;;;3.46;72.21
50394;BME280;36308;46.312;25.288;2022-12-18T00:48:26;96937.91;;;3.46;72.76
50394;BME280;36308;46.312;25.288;2022-12-18T00:50:52;96938.94;;;3.45;72.15
50394;BME280;36308;46.312;25.288;2022-12-18T00:53:17;96941.78;;;3.43;72.19
50394;BME280;36308;46.312;25.288;2022-12-18T00:55:43;96947.91;;;3.44;72.08
50394;BME280;36308;46.312;25.288;2022-12-18T00:58:09;96947.28;;;3.42;72.48
50394;BME280;36308;46.312;25.288;2022-12-18T01:00:34;96957.09;;;3.41;71.71
50394;BME280;36308;46.312;25.288;2022-12-18T01:03:00;96947.66;;;3.39;72.05
50394;BME280;36308;46.312;25.288;2022-12-18T01:05:25;96961.94;;;3.38;72.30
50394;BME280;36308;46.312;25.288;2022-12-18T01:07:51;96959.28;;;3.38;72.41
50394;BME280;36308;46.312;25.288;2022-12-18T01:10:16;96958.66;;;3.36;72.29
50394;BME280;36308;46.312;25.288;2022-12-18T01:12:42;96962.34;;;3.35;72.19
50394;BME280;36308;46.312;25.288;2022-12-18T01:15:09;96962.53;;;3.33;72.16
50394;BME280;36308;46.312;25.288;2022-12-18T01:17:34;96961.06;;;3.31;71.61
50394;BME280;36308;46.312;25.288;2022-12-18T01:20:00;96966.75;;;3.28;72.40
50394;BME280;36308;46.312;25.288;2022-12-18T01:22:25;96974.94;;;3.26;71.99
50394;BME280;36308;46.312;25.288;2022-12-18T01:24:50;96981.44;;;3.23;71.69
50394;BME280;36308;46.312;25.288;2022-12-18T01:27:16;96977.31;;;3.21;71.54
50394;BME280;36308;46.312;25.288;2022-12-18T01:29:41;96978.53;;;3.18;72.17
50394;BME280;36308;46.312;25.288;2022-12-18T01:32:07;96982.19;;;3.17;71.70
50394;BME280;36308;46.312;25.288;2022-12-18T01:34:32;96978.88;;;3.15;72.22
50394;BME280;36308;46.312;25.288;2022-12-18T01:37:00;96993.19;;;3.14;72.08
50394;BME280;36308;46.312;25.288;2022-12-18T01:39:27;96992.56;;;3.12;71.80
50394;BME280;36308;46.312;25.288;2022-12-18T01:41:52;96993.56;;;3.11;71.99
50394;BME280;36308;46.312;25.288;2022-12-18T01:47:12;96990.66;;;3.06;71.69
50394;BME280;36308;46.312;25.288;2022-12-18T01:49:39;96991.84;;;3.03;71.62
50394;BME280;36308;46.312;25.288;2022-12-18T01:52:04;96998.38;;;3.01;72.01
50394;BME280;36308;46.312;25.288;2022-12-18T01:54:29;96995.06;;;2.99;71.68
50394;BME280;36308;46.312;25.288;2022-12-18T01:56:55;96988.09;;;2.98;71.64
50394;BME280;36308;46.312;25.288;2022-12-18T01:59:20;96991.97;;;2.95;72.22
50394;BME280;36308;46.312;25.288;2022-12-18T02:01:46;96999.28;;;2.93;71.27
50394;BME280;36308;46.312;25.288;2022-12-18T02:04:24;97000.66;;;2.89;71.65
50394;BME280;36308;46.312;25.288;2022-12-18T02:06:51;97004.31;;;2.88;71.32
50394;BME280;36308;46.312;25.288;2022-12-18T02:09:21;97017.16;;;2.85;72.10
50394;BME280;36308;46.312;25.288;2022-12-18T02:11:53;97014.84;;;2.81;71.33
50394;BME280;36308;46.312;25.288;2022-12-18T02:27:15;97032.66;;;2.66;71.68
50394;BME280;36308;46.312;25.288;2022-12-18T02:29:44;97036.28;;;2.65;71.38
50394;BME280;36308;46.312;25.288;2022-12-18T02:32:12;97041.59;;;2.65;71.92
50394;BME280;36308;46.312;25.288;2022-12-18T02:34:39;97035.00;;;2.61;71.76
50394;BME280;36308;46.312;25.288;2022-12-18T02:37:06;97037.88;;;2.59;71.46
50394;BME280;36308;46.312;25.288;2022-12-18T02:39:33;97039.88;;;2.57;71.25
50394;BME280;36308;46.312;25.288;2022-12-18T02:41:59;97050.84;;;2.54;71.83
50394;BME280;36308;46.312;25.288;2022-12-18T02:44:27;97045.72;;;2.53;71.88
50394;BME280;36308;46.312;25.288;2022-12-18T02:46:53;97051.22;;;2.51;71.51
50394;BME280;36308;46.312;25.288;2022-12-18T02:52:07;97056.53;;;2.51;71.65
50394;BME280;36308;46.312;25.288;2022-12-18T02:59:58;97087.53;;;2.51;72.18
50394;BME280;36308;46.312;25.288;2022-12-18T03:05:02;97094.84;;;2.49;72.07
50394;BME280;36308;46.312;25.288;2022-12-18T03:07:34;97095.72;;;2.49;71.26
50394;BME280;36308;46.312;25.288;2022-12-18T03:10:00;97094.84;;;2.49;71.37
50394;BME280;36308;46.312;25.288;2022-12-18T03:12:30;97089.53;;;2.49;71.82
50394;BME280;36308;46.312;25.288;2022-12-18T03:17:23;97087.28;;;2.46;71.63
50394;BME280;36308;46.312;25.288;2022-12-18T03:19:51;97097.88;;;2.46;71.08
50394;BME280;36308;46.312;25.288;2022-12-18T03:22:16;97103.53;;;2.42;70.94
50394;BME280;36308;46.312;25.288;2022-12-18T03:24:43;97122.50;;;2.39;71.06
50394;BME280;36308;46.312;25.288;2022-12-18T03:27:10;97129.81;;;2.37;70.86
50394;BME280;36308;46.312;25.288;2022-12-18T03:29:45;97123.22;;;2.33;69.97
50394;BME280;36308;46.312;25.288;2022-12-18T03:32:17;97124.41;;;2.31;70.07
50394;BME280;36308;46.312;25.288;2022-12-18T03:34:44;97132.53;;;2.29;70.92
50394;BME280;36308;46.312;25.288;2022-12-18T03:37:12;97124.72;;;2.28;70.47
50394;BME280;36308;46.312;25.288;2022-12-18T03:39:37;97126.91;;;2.24;70.53
50394;BME280;36308;46.312;25.288;2022-12-18T03:44:43;97144.19;;;2.20;70.38
50394;BME280;36308;46.312;25.288;2022-12-18T03:47:26;97153.16;;;2.19;70.19
50394;BME280;36308;46.312;25.288;2022-12-18T03:52:20;97158.00;;;2.15;70.00
50394;BME280;36308;46.312;25.288;2022-12-18T03:54:46;97147.75;;;2.12;69.79
50394;BME280;36308;46.312;25.288;2022-12-18T03:57:22;97157.53;;;2.12;70.00
50394;BME280;36308;46.312;25.288;2022-12-18T03:59:50;97155.06;;;2.10;70.43
50394;BME280;36308;46.312;25.288;2022-12-18T04:02:17;97156.25;;;2.08;69.92
50394;BME280;36308;46.312;25.288;2022-12-18T04:04:42;97158.25;;;2.06;69.89
50394;BME280;36308;46.312;25.288;2022-12-18T04:07:09;97165.56;;;2.04;69.95
50394;BME280;36308;46.312;25.288;2022-12-18T04:09:35;97162.72;;;2.05;69.77
50394;BME280;36308;46.312;25.288;2022-12-18T04:12:01;97168.38;;;2.02;69.61
50394;BME280;36308;46.312;25.288;2022-12-18T04:14:26;97171.19;;;2.00;70.37
50394;BME280;36308;46.312;25.288;2022-12-18T04:16:51;97171.56;;;1.97;70.27
50394;BME280;36308;46.312;25.288;2022-12-18T04:19:16;97173.38;;;1.97;70.06
50394;BME280;36308;46.312;25.288;2022-12-18T04:21:42;97170.91;;;1.95;70.69
50394;BME280;36308;46.312;25.288;2022-12-18T04:24:07;97171.91;;;1.94;70.15
50394;BME280;36308;46.312;25.288;2022-12-18T04:26:33;97181.53;;;1.95;70.44
50394;BME280;36308;46.312;25.288;2022-12-18T04:28:59;97184.16;;;1.95;69.93
50394;BME280;36308;46.312;25.288;2022-12-18T04:31:24;97186.16;;;1.93;70.30
50394;BME280;36308;46.312;25.288;2022-12-18T04:33:49;97196.78;;;1.93;70.83
50394;BME280;36308;46.312;25.288;2022-12-18T04:36:14;97196.78;;;1.93;70.80
50394;BME280;36308;46.312;25.288;2022-12-18T04:38:40;97201.22;;;1.93;70.36
50394;BME280;36308;46.312;25.288;2022-12-18T04:41:05;97204.91;;;1.92;70.52
50394;BME280;36308;46.312;25.288;2022-12-18T04:43:30;97219.16;;;1.91;70.74
50394;BME280;36308;46.312;25.288;2022-12-18T04:46:01;97210.38;;;1.90;70.38
50394;BME280;36308;46.312;25.288;2022-12-18T04:48:27;97216.69;;;1.89;69.94
50394;BME280;36308;46.312;25.288;2022-12-18T04:50:52;97227.31;;;1.89;70.16
50394;BME280;36308;46.312;25.288;2022-12-18T04:53:17;97229.31;;;1.87;70.43
50394;BME280;36308;46.312;25.288;2022-12-18T04:55:42;97225.78;;;1.87;70.76
50394;BME280;36308;46.312;25.288;2022-12-18T04:58:08;97245.22;;;1.87;70.30
50394;BME280;36308;46.312;25.288;2022-12-18T05:00:33;97246.03;;;1.88;70.42
50394;BME280;36308;46.312;25.288;2022-12-18T05:03:00;97243.38;;;1.88;70.19
50394;BME280;36308;46.312;25.288;2022-12-18T05:05:25;97238.25;;;1.86;69.81
50394;BME280;36308;46.312;25.288;2022-12-18T05:07:50;97243.53;;;1.86;69.86
50394;BME280;36308;46.312;25.288;2022-12-18T05:10:16;97248.03;;;1.86;70.28
50394;BME280;36308;46.312;25.288;2022-12-18T05:12:41;97256.63;;;1.88;70.20
50394;BME280;36308;46.312;25.288;2022-12-18T05:15:28;97263.13;;;1.85;69.88
50394;BME280;36308;46.312;25.288;2022-12-18T05:20:57;97266.09;;;1.82;69.57
50394;BME280;36308;46.312;25.288;2022-12-18T05:23:23;97260.13;;;1.80;69.82
50394;BME280;36308;46.312;25.288;2022-12-18T05:25:55;97268.25;;;1.78;69.38
50394;BME280;36308;46.312;25.288;2022-12-18T05:28:21;97269.28;;;1.77;69.86
50394;BME280;36308;46.312;25.288;2022-12-18T05:30:48;97273.75;;;1.77;69.89
50394;BME280;36308;46.312;25.288;2022-12-18T05:33:13;97280.84;;;1.76;69.38
50394;BME280;36308;46.312;25.288;2022-12-18T05:35:38;97285.34;;;1.76;69.63
50394;BME280;36308;46.312;25.288;2022-12-18T05:38:04;97284.53;;;1.75;69.49
50394;BME280;36308;46.312;25.288;2022-12-18T05:40:29;97289.00;;;1.75;69.07
50394;BME280;36308;46.312;25.288;2022-12-18T05:42:54;97303.91;;;1.76;69.15
50394;BME280;36308;46.312;25.288;2022-12-18T05:45:19;97304.91;;;1.75;68.52
50394;BME280;36308;46.312;25.288;2022-12-18T05:47:45;97308.56;;;1.74;68.56
50394;BME280;36308;46.312;25.288;2022-12-18T05:50:10;97315.84;;;1.72;68.86
50394;BME280;36308;46.312;25.288;2022-12-18T05:52:35;97321.50;;;1.69;69.09
50394;BME280;36308;46.312;25.288;2022-12-18T05:55:01;97324.47;;;1.66;68.98
50394;BME280;36308;46.312;25.288;2022-12-18T05:57:26;97329.13;;;1.64;68.40
50394;BME280;36308;46.312;25.288;2022-12-18T05:59:51;97326.66;;;1.62;68.71
50394;BME280;36308;46.312;25.288;2022-12-18T06:02:17;97347.03;;;1.61;69.16
50394;BME280;36308;46.312;25.288;2022-12-18T06:07:45;97349.00;;;1.59;68.58
50394;BME280;36308;46.312;25.288;2022-12-18T06:13:13;97356.16;;;1.59;68.38
50394;BME280;36308;46.312;25.288;2022-12-18T06:15:38;97355.50;;;1.57;69.06
50394;BME280;36308;46.312;25.288;2022-12-18T06:18:03;97357.31;;;1.56;68.29
50394;BME280;36308;46.312;25.288;2022-12-18T06:20:30;97363.59;;;1.55;68.48
50394;BME280;36308;46.312;25.288;2022-12-18T06:22:55;97369.91;;;1.54;68.50
50394;BME280;36308;46.312;25.288;2022-12-18T06:25:20;97373.88;;;1.50;68.25
50394;BME280;36308;46.312;25.288;2022-12-18T06:27:47;97382.81;;;1.49;68.43
50394;BME280;36308;46.312;25.288;2022-12-18T06:30:12;97376.84;;;1.47;68.64
50394;BME280;36308;46.312;25.288;2022-12-18T06:32:38;97382.16;;;1.47;69.17
50394;BME280;36308;46.312;25.288;2022-12-18T06:35:03;97390.09;;;1.47;69.12
50394;BME280;36308;46.312;25.288;2022-12-18T06:37:30;97395.41;;;1.47;69.22
50394;BME280;36308;46.312;25.288;2022-12-18T06:39:55;97403.38;;;1.47;69.08
50394;BME280;36308;46.312;25.288;2022-12-18T06:42:23;97407.03;;;1.46;68.86
50394;BME280;36308;46.312;25.288;2022-12-18T06:44:48;97421.09;;;1.47;68.88
50394;BME280;36308;46.312;25.288;2022-12-18T06:47:14;97416.81;;;1.46;69.06
50394;BME280;36308;46.312;25.288;2022-12-18T06:49:39;97423.91;;;1.45;69.04
50394;BME280;36308;46.312;25.288;2022-12-18T06:52:04;97426.75;;;1.44;69.39
50394;BME280;36308;46.312;25.288;2022-12-18T06:54:30;97421.59;;;1.42;68.86
50394;BME280;36308;46.312;25.288;2022-12-18T06:56:55;97432.19;;;1.42;68.84
50394;BME280;36308;46.312;25.288;2022-12-18T06:59:20;97428.06;;;1.39;68.88
50394;BME280;36308;46.312;25.288;2022-12-18T07:01:45;97443.13;;;1.39;68.93
50394;BME280;36308;46.312;25.288;2022-12-18T07:04:11;97442.28;;;1.38;69.48
50394;BME280;36308;46.312;25.288;2022-12-18T07:06:36;97448.41;;;1.39;69.47
50394;BME280;36308;46.312;25.288;2022-12-18T07:09:02;97446.78;;;1.38;69.38
50394;BME280;36308;46.312;25.288;2022-12-18T07:11:28;97451.72;;;1.41;68.96
50394;BME280;36308;46.312;25.288;2022-12-18T07:13:53;97453.41;;;1.42;69.72
50394;BME280;36308;46.312;25.288;2022-12-18T07:16:20;97458.69;;;1.42;69.44
50394;BME280;36308;46.312;25.288;2022-12-18T07:18:45;97456.72;;;1.44;68.87
50394;BME280;36308;46.312;25.288;2022-12-18T07:21:11;97459.53;;;1.42;68.94
50394;BME280;36308;46.312;25.288;2022-12-18T07:23:37;97472.78;;;1.42;69.17
50394;BME280;36308;46.312;25.288;2022-12-18T07:26:07;97471.94;;;1.42;68.69
50394;BME280;36308;46.312;25.288;2022-12-18T07:28:33;97464.00;;;1.42;68.79
50394;BME280;36308;46.312;25.288;2022-12-18T07:31:09;97481.53;;;1.43;69.62
50394;BME280;36308;46.312;25.288;2022-12-18T07:33:35;97480.72;;;1.42;69.52
50394;BME280;36308;46.312;25.288;2022-12-18T07:36:00;97481.53;;;1.43;69.04
50394;BME280;36308;46.312;25.288;2022-12-18T07:38:27;97488.53;;;1.44;69.86
50394;BME280;36308;46.312;25.288;2022-12-18T07:40:52;97482.41;;;1.44;69.08
50394;BME280;36308;46.312;25.288;2022-12-18T07:43:18;97487.50;;;1.45;69.71
50394;BME280;36308;46.312;25.288;2022-12-18T07:45:43;97495.47;;;1.45;68.84
50394;BME280;36308;46.312;25.288;2022-12-18T07:48:09;97498.97;;;1.46;68.87
50394;BME280;36308;46.312;25.288;2022-12-18T07:50:34;97501.63;;;1.46;69.46
50394;BME280;36308;46.312;25.288;2022-12-18T07:53:00;97504.06;;;1.47;69.86
50394;BME280;36308;46.312;25.288;2022-12-18T07:55:29;97507.38;;;1.49;69.53
50394;BME280;36308;46.312;25.288;2022-12-18T07:57:54;97517.03;;;1.50;68.93
50394;BME280;36308;46.312;25.288;2022-12-18T08:00:19;97516.00;;;1.51;68.90
50394;BME280;36308;46.312;25.288;2022-12-18T08:02:45;97521.97;;;1.53;69.10
50394;BME280;36308;46.312;25.288;2022-12-18T08:05:10;97527.13;;;1.55;68.82
50394;BME280;36308;46.312;25.288;2022-12-18T08:07:35;97532.28;;;1.56;68.88
50394;BME280;36308;46.312;25.288;2022-12-18T08:10:01;97534.91;;;1.56;69.46
50394;BME280;36308;46.312;25.288;2022-12-18T08:12:26;97541.88;;;1.57;68.67
50394;BME280;36308;46.312;25.288;2022-12-18T08:14:51;97547.16;;;1.57;68.77
50394;BME280;36308;46.312;25.288;2022-12-18T08:17:16;97548.00;;;1.58;68.89
50394;BME280;36308;46.312;25.288;2022-12-18T08:19:42;97554.97;;;1.59;68.79
50394;BME280;36308;46.312;25.288;2022-12-18T08:22:07;97553.97;;;1.60;68.60
50394;BME280;36308;46.312;25.288;2022-12-18T08:24:32;97562.59;;;1.62;68.41
50394;BME280;36308;46.312;25.288;2022-12-18T08:26:58;97561.94;;;1.60;68.14
50394;BME280;36308;46.312;25.288;2022-12-18T08:29:23;97561.09;;;1.59;68.31
50394;BME280;36308;46.312;25.288;2022-12-18T08:31:48;97561.94;;;1.60;68.63
50394;BME280;36308;46.312;25.288;2022-12-18T08:34:13;97559.09;;;1.61;68.35
50394;BME280;36308;46.312;25.288;2022-12-18T08:36:39;97558.13;;;1.63;68.13
50394;BME280;36308;46.312;25.288;2022-12-18T08:39:05;97561.59;;;1.63;68.01
50394;BME280;36308;46.312;25.288;2022-12-18T08:41:30;97561.44;;;1.65;68.11
50394;BME280;36308;46.312;25.288;2022-12-18T08:43:55;97566.59;;;1.66;68.33
50394;BME280;36308;46.312;25.288;2022-12-18T08:46:39;97563.75;;;1.68;67.85
50394;BME280;36308;46.312;25.288;2022-12-18T08:49:05;97562.94;;;1.67;67.88
50394;BME280;36308;46.312;25.288;2022-12-18T08:51:31;97567.41;;;1.67;68.44
50394;BME280;36308;46.312;25.288;2022-12-18T08:53:57;97563.59;;;1.69;67.74
50394;BME280;36308;46.312;25.288;2022-12-18T08:56:22;97565.09;;;1.72;67.81
50394;BME280;36308;46.312;25.288;2022-12-18T08:58:50;97565.75;;;1.74;68.25
50394;BME280;36308;46.312;25.288;2022-12-18T09:04:18;97561.09;;;1.76;67.88
50394;BME280;36308;46.312;25.288;2022-12-18T09:06:44;97557.47;;;1.77;67.63
50394;BME280;36308;46.312;25.288;2022-12-18T09:09:09;97567.06;;;1.78;68.19
50394;BME280;36308;46.312;25.288;2022-12-18T09:11:35;97574.06;;;1.79;68.13
50394;BME280;36308;46.312;25.288;2022-12-18T09:14:00;97566.91;;;1.79;68.00
50394;BME280;36308;46.312;25.288;2022-12-18T09:16:26;97569.41;;;1.81;67.17
50394;BME280;36308;46.312;25.288;2022-12-18T09:18:53;97578.03;;;1.83;67.18
50394;BME280;36308;46.312;25.288;2022-12-18T09:21:24;97570.09;;;1.83;67.40
50394;BME280;36308;46.312;25.288;2022-12-18T09:23:50;97572.41;;;1.86;67.67
50394;BME280;36308;46.312;25.288;2022-12-18T09:26:16;97578.50;;;1.87;67.10
50394;BME280;36308;46.312;25.288;2022-12-18T09:28:41;97562.59;;;1.87;67.21
50394;BME280;36308;46.312;25.288;2022-12-18T09:31:07;97577.53;;;1.88;67.19
50394;BME280;36308;46.312;25.288;2022-12-18T09:33:34;97575.72;;;1.88;67.27
50394;BME280;36308;46.312;25.288;2022-12-18T09:39:02;97577.53;;;1.88;66.54
50394;BME280;36308;46.312;25.288;2022-12-18T09:41:44;97572.91;;;1.90;66.84
50394;BME280;36308;46.312;25.288;2022-12-18T09:47:25;97582.34;;;1.92;65.96
50394;BME280;36308;46.312;25.288;2022-12-18T09:49:30;97575.41;;;1.91;66.56
50394;BME280;36308;46.312;25.288;2022-12-18T09:51:59;97584.00;;;1.93;65.91
50394;BME280;36308;46.312;25.288;2022-12-18T09:54:33;97571.41;;;1.95;66.50
50394;BME280;36308;46.312;25.288;2022-12-18T09:56:59;97571.41;;;1.95;66.29
50394;BME280;36308;46.312;25.288;2022-12-18T09:59:26;97578.06;;;1.99;66.10
50394;BME280;36308;46.312;25.288;2022-12-18T10:01:54;97571.22;;;2.05;66.79
50394;BME280;36308;46.312;25.288;2022-12-18T10:07:24;97568.41;;;2.07;65.79
50394;BME280;36308;46.312;25.288;2022-12-18T10:12:54;97566.13;;;2.12;65.60
50394;BME280;36308;46.312;25.288;2022-12-18T10:25:39;97583.69;;;2.29;65.34
50394;BME280;36308;46.312;25.288;2022-12-18T10:28:10;97583.69;;;2.29;65.03
50394;BME280;36308;46.312;25.288;2022-12-18T10:30:36;97588.97;;;2.29;64.59
50394;BME280;36308;46.312;25.288;2022-12-18T10:33:03;97595.28;;;2.28;64.67
50394;BME280;36308;46.312;25.288;2022-12-18T10:35:28;97601.25;;;2.30;64.43
50394;BME280;36308;46.312;25.288;2022-12-18T10:40:25;97588.97;;;2.29;64.39
50394;BME280;36308;46.312;25.288;2022-12-18T10:45:34;97587.97;;;2.30;64.43
50394;BME280;36308;46.312;25.288;2022-12-18T10:48:00;97582.66;;;2.30;65.23
50394;BME280;36308;46.312;25.288;2022-12-18T10:50:27;97583.31;;;2.32;65.21
50394;BME280;36308;46.312;25.288;2022-12-18T10:52:54;97587.50;;;2.35;65.39
50394;BME280;36308;46.312;25.288;2022-12-18T10:55:20;97587.31;;;2.36;65.52
50394;BME280;36308;46.312;25.288;2022-12-18T10:57:45;97592.44;;;2.38;65.14
50394;BME280;36308;46.312;25.288;2022-12-18T11:03:30;97587.66;;;2.41;64.93
50394;BME280;36308;46.312;25.288;2022-12-18T11:06:02;97589.28;;;2.42;64.74
50394;BME280;36308;46.312;25.288;2022-12-18T11:08:28;97590.97;;;2.43;64.84
50394;BME280;36308;46.312;25.288;2022-12-18T11:10:53;97587.28;;;2.45;65.44
50394;BME280;36308;46.312;25.288;2022-12-18T11:13:22;97595.09;;;2.46;64.85
50394;BME280;36308;46.312;25.288;2022-12-18T11:15:49;97604.75;;;2.47;64.99
50394;BME280;36308;46.312;25.288;2022-12-18T11:18:19;97603.88;;;2.47;64.70
50394;BME280;36308;46.312;25.288;2022-12-18T11:20:55;97604.06;;;2.45;63.79
50394;BME280;36308;46.312;25.288;2022-12-18T11:23:22;97606.06;;;2.43;63.76
50394;BME280;36308;46.312;25.288;2022-12-18T11:25:59;97599.09;;;2.42;63.90
50394;BME280;36308;46.312;25.288;2022-12-18T11:28:25;97603.56;;;2.41;64.62
50394;BME280;36308;46.312;25.288;2022-12-18T11:31:16;97605.22;;;2.42;64.51
50394;BME280;36308;46.312;25.288;2022-12-18T11:33:38;97605.22;;;2.42;64.66
50394;BME280;36308;46.312;25.288;2022-12-18T11:36:05;97609.53;;;2.43;64.62
50394;BME280;36308;46.312;25.288;2022-12-18T11:38:34;97613.84;;;2.45;64.45
50394;BME280;36308;46.312;25.288;2022-12-18T11:43:32;97619.16;;;2.45;64.11
50394;BME280;36308;46.312;25.288;2022-12-18T11:46:02;97622.81;;;2.43;64.38
50394;BME280;36308;46.312;25.288;2022-12-18T11:48:33;97625.47;;;2.43;64.46
50394;BME280;36308;46.312;25.288;2022-12-18T11:51:00;97621.81;;;2.45;64.25
50394;BME280;36308;46.312;25.288;2022-12-18T11:53:26;97632.25;;;2.46;64.19
50394;BME280;36308;46.312;25.288;2022-12-18T11:58:43;97630.28;;;2.48;64.59
50394;BME280;36308;46.312;25.288;2022-12-18T12:01:13;97628.13;;;2.52;64.64
50394;BME280;36308;46.312;25.288;2022-12-18T12:11:20;97629.09;;;2.51;63.59
50394;BME280;36308;46.312;25.288;2022-12-18T12:16:25;97633.94;;;2.47;63.51
50394;BME280;36308;46.312;25.288;2022-12-18T12:21:42;97640.38;;;2.45;63.28
50394;BME280;36308;46.312;25.288;2022-12-18T12:24:27;97637.94;;;2.43;62.87
50394;BME280;36308;46.312;25.288;2022-12-18T12:29:43;97638.75;;;2.43;63.24
50394;BME280;36308;46.312;25.288;2022-12-18T12:37:25;97653.84;;;2.43;63.05
50394;BME280;36308;46.312;25.288;2022-12-18T12:39:54;97659.16;;;2.43;63.62
50394;BME280;36308;46.312;25.288;2022-12-18T12:42:21;97658.81;;;2.46;63.67
50394;BME280;36308;46.312;25.288;2022-12-18T12:45:13;97659.63;;;2.47;63.92
50394;BME280;36308;46.312;25.288;2022-12-18T12:47:41;97663.97;;;2.48;63.78
50394;BME280;36308;46.312;25.288;2022-12-18T12:52:52;97668.44;;;2.47;62.85
50394;BME280;36308;46.312;25.288;2022-12-18T12:55:22;97660.97;;;2.42;62.58
50394;BME280;36308;46.312;25.288;2022-12-18T13:00:39;97669.59;;;2.36;62.51
50394;BME280;36308;46.312;25.288;2022-12-18T13:05:34;97676.88;;;2.34;63.16
50394;BME280;36308;46.312;25.288;2022-12-18T13:08:04;97684.03;;;2.34;63.56
50394;BME280;36308;46.312;25.288;2022-12-18T13:10:35;97680.56;;;2.33;63.22
50394;BME280;36308;46.312;25.288;2022-12-18T13:13:11;97688.50;;;2.33;63.00
50394;BME280;36308;46.312;25.288;2022-12-18T13:15:46;97685.19;;;2.31;63.55
50394;BME280;36308;46.312;25.288;2022-12-18T13:25:48;97693.47;;;2.28;63.20
50394;BME280;36308;46.312;25.288;2022-12-18T13:28:14;97692.66;;;2.28;63.94
50394;BME280;36308;46.312;25.288;2022-12-18T13:35:41;97698.78;;;2.28;63.72
50394;BME280;36308;46.312;25.288;2022-12-18T13:48:29;97712.88;;;2.20;63.16
50394;BME280;36308;46.312;25.288;2022-12-18T13:51:03;97714.03;;;2.18;63.46
50394;BME280;36308;46.312;25.288;2022-12-18T13:53:37;97709.22;;;2.13;63.30
50394;BME280;36308;46.312;25.288;2022-12-18T13:56:04;97710.53;;;2.09;62.58
50394;BME280;36308;46.312;25.288;2022-12-18T13:58:30;97709.38;;;2.04;63.15
50394;BME280;36308;46.312;25.288;2022-12-18T14:00:55;97714.16;;;2.00;63.36
50394;BME280;36308;46.312;25.288;2022-12-18T14:03:25;97715.47;;;1.96;62.75
50394;BME280;36308;46.312;25.288;2022-12-18T14:05:55;97718.28;;;1.94;63.34
50394;BME280;36308;46.312;25.288;2022-12-18T14:08:21;97714.97;;;1.92;63.27
50394;BME280;36308;46.312;25.288;2022-12-18T14:10:48;97712.31;;;1.92;63.22
50394;BME280;36308;46.312;25.288;2022-12-18T14:13:27;97713.31;;;1.91;63.97
50394;BME280;36308;46.312;25.288;2022-12-18T14:15:54;97724.91;;;1.90;63.42
50394;BME280;36308;46.312;25.288;2022-12-18T14:18:30;97716.28;;;1.88;63.43
50394;BME280;36308;46.312;25.288;2022-12-18T14:20:59;97727.03;;;1.87;63.44
50394;BME280;36308;46.312;25.288;2022-12-18T14:23:29;97731.53;;;1.86;63.32
50394;BME280;36308;46.312;25.288;2022-12-18T14:25:54;97730.03;;;1.84;63.16
50394;BME280;36308;46.312;25.288;2022-12-18T14:28:20;97738.13;;;1.82;64.04
50394;BME280;36308;46.312;25.288;2022-12-18T14:30:47;97741.94;;;1.79;63.19
50394;BME280;36308;46.312;25.288;2022-12-18T14:33:13;97746.72;;;1.76;63.63
50394;BME280;36308;46.312;25.288;2022-12-18T14:38:24;97753.00;;;1.67;63.64
50394;BME280;36308;46.312;25.288;2022-12-18T14:43:21;97757.78;;;1.63;64.34
50394;BME280;36308;46.312;25.288;2022-12-18T14:45:46;97765.06;;;1.61;63.61
50394;BME280;36308;46.312;25.288;2022-12-18T14:48:16;97769.84;;;1.57;63.97
50394;BME280;36308;46.312;25.288;2022-12-18T14:50:43;97769.16;;;1.55;64.49
50394;BME280;36308;46.312;25.288;2022-12-18T14:53:20;97772.16;;;1.52;63.92
50394;BME280;36308;46.312;25.288;2022-12-18T14:55:47;97762.69;;;1.50;64.18
50394;BME280;36308;46.312;25.288;2022-12-18T14:58:13;97769.13;;;1.47;63.83
50394;BME280;36308;46.312;25.288;2022-12-18T15:00:41;97775.72;;;1.43;63.91
50394;BME280;36308;46.312;25.288;2022-12-18T15:03:06;97781.22;;;1.41;64.67
50394;BME280;36308;46.312;25.288;2022-12-18T15:05:32;97774.72;;;1.36;64.53
50394;BME280;36308;46.312;25.288;2022-12-18T15:07:58;97770.72;;;1.32;64.13
50394;BME280;36308;46.312;25.288;2022-12-18T15:10:28;97768.38;;;1.29;65.05
50394;BME280;36308;46.312;25.288;2022-12-18T15:20:33;97786.59;;;1.32;65.04
50394;BME280;36308;46.312;25.288;2022-12-18T15:23:04;97778.66;;;1.32;64.66
50394;BME280;36308;46.312;25.288;2022-12-18T15:25:36;97786.59;;;1.32;65.11
50394;BME280;36308;46.312;25.288;2022-12-18T15:28:02;97786.59;;;1.32;65.17
50394;BME280;36308;46.312;25.288;2022-12-18T15:30:27;97794.69;;;1.30;64.91